This is the latest recevied weather packets stored in our database for station/object KF6RAL-6. If no packets are shown the sender has not sent any weather packets the latest 10 day(s).
| Time | Temp. | Humidity | Pressure | Rain* | Wind** | Luminosity | Snow |
|---|---|---|---|---|---|---|---|
| 1777460775 | 6.11° C | 60% | 1018.4 hPa | 0 mm | - | - | - |
| 1777460354 | 6.67° C | 61% | 1018 hPa | 0 mm | - | - | - |
| 1777459933 | 7.22° C | 65% | 1017.9 hPa | 0 mm | - | - | - |
| 1777459512 | 7.22° C | 65% | 1018.1 hPa | 0 mm | - | - | - |
| 1777459092 | 7.22° C | 65% | 1018.1 hPa | 0 mm | - | - | - |
| 1777458670 | 6.67° C | 63% | 1018.1 hPa | 0 mm | - | - | - |
| 1777458249 | 6.67° C | 64% | 1018 hPa | 0 mm | - | - | - |
| 1777457831 | 6.67° C | 65% | 1018 hPa | 0 mm | - | - | - |
| 1777457407 | 6.67° C | 65% | 1017.8 hPa | 0 mm | - | - | - |
| 1777456565 | 7.22° C | 62% | 1017.8 hPa | 0 mm | - | - | - |
| 1777456144 | 7.22° C | 62% | 1017.9 hPa | 0 mm | - | - | - |
| 1777455723 | 6.67° C | 63% | 1018.1 hPa | 0 mm | - | - | - |
| 1777455302 | 6.67° C | 63% | 1018.2 hPa | 0 mm | - | - | - |
| 1777454881 | 6.67° C | 65% | 1018.1 hPa | 0 mm | - | - | - |
| 1777454460 | 6.67° C | 62% | 1018.3 hPa | 0 mm | - | - | - |
| 1777454039 | 6.67° C | 62% | 1018.3 hPa | 0 mm | - | - | - |
| 1777453618 | 7.22° C | 59% | 1018 hPa | 0 mm | - | - | - |
| 1777453197 | 8.33° C | 53% | 1017.7 hPa | 0 mm | - | - | - |
| 1777452776 | 8.33° C | 50% | 1017.7 hPa | 0 mm | - | - | - |
| 1777452355 | 8.33° C | 52% | 1018 hPa | 0 mm | - | - | - |
| 1777451934 | 7.78° C | 54% | 1018 hPa | 0 mm | - | - | - |
| 1777451513 | 7.78° C | 53% | 1018 hPa | 0 mm | - | - | - |
| 1777451092 | 7.78° C | 55% | 1018.2 hPa | 0 mm | - | - | - |
| 1777450671 | 7.22° C | 56% | 1018.5 hPa | 0 mm | - | - | - |
| 1777450250 | 6.67° C | 59% | 1018.5 hPa | 0 mm | - | - | - |
* Rain latest hour (hover to see other rain measurements)
** Current wind speed in m/s (hover to see current wind gust speed)